Time;durP1;ratioP1;P1;durP2;ratioP2;P2;SDS_P1;SDS_P2;PMS_P1;PMS_P2;Temp;Humidity;BMP_temperature;BMP_pressure;BME280_temperature;BME280_humidity;BME280_pressure;Samples;Min_cycle;Max_cycle;Signal;HPM_P1;HPM_P2
2020/12/15 00:00:39;;;;;;;2.85;2.65;;;;;22.00;99654.00;;;;2075349;28;20225;-69
2020/12/15 00:01:40;;;;;;;3.03;2.73;;;;;22.10;99668.00;;;;2077634;28;20217;-69
2020/12/15 00:02:40;;;;;;;3.33;3.03;;;;;22.00;99663.00;;;;2066093;28;20225;-68
2020/12/15 00:03:40;;;;;;;3.00;2.67;;;;;22.00;99659.00;;;;2069094;28;20248;-69
2020/12/15 00:04:41;;;;;;;3.40;2.83;;;;;22.00;99658.00;;;;2066153;28;20242;-69
2020/12/15 00:05:41;;;;;;;3.00;2.60;;;;;22.00;99648.00;;;;2069193;28;20235;-69
2020/12/15 00:06:42;;;;;;;3.40;3.10;;;;;22.00;99644.00;;;;2074780;28;20299;-69
2020/12/15 00:07:42;;;;;;;2.53;2.33;;;;;22.00;99642.00;;;;2078943;28;20212;-69
2020/12/15 00:08:43;;;;;;;3.03;2.70;;;;;22.10;99651.00;;;;2079657;28;20761;-67
2020/12/15 00:09:43;;;;;;;3.35;3.05;;;;;22.10;99651.00;;;;2080253;28;20213;-68
2020/12/15 00:10:44;;;;;;;2.50;2.30;;;;;22.10;99659.00;;;;2073891;28;20250;-68
2020/12/15 00:11:44;;;;;;;2.80;2.53;;;;;22.10;99660.00;;;;2077516;28;20210;-68
2020/12/15 00:12:44;;;;;;;2.93;2.37;;;;;22.10;99646.00;;;;2074271;28;20226;-68
2020/12/15 00:13:45;;;;;;;2.77;2.50;;;;;22.00;99641.00;;;;2063459;28;20246;-69
2020/12/15 00:14:46;;;;;;;2.60;2.40;;;;;22.00;99647.00;;;;2065394;28;20216;-68
2020/12/15 00:15:46;;;;;;;2.90;2.30;;;;;22.00;99652.00;;;;2074379;28;20221;-68
2020/12/15 00:16:46;;;;;;;2.97;2.60;;;;;22.00;99644.00;;;;2074309;28;20221;-68
2020/12/15 00:17:46;;;;;;;2.53;2.33;;;;;22.00;99647.00;;;;2077806;28;20218;-69
2020/12/15 00:18:47;;;;;;;2.80;2.40;;;;;22.00;99649.00;;;;2074140;28;20249;-69
2020/12/15 00:19:47;;;;;;;2.60;2.40;;;;;22.00;99641.00;;;;2069801;28;20221;-69
2020/12/15 00:20:47;;;;;;;2.57;2.23;;;;;22.00;99635.00;;;;2065523;28;20214;-69
2020/12/15 00:21:48;;;;;;;2.77;2.10;;;;;22.00;99637.00;;;;2078649;28;20253;-69
2020/12/15 00:22:48;;;;;;;3.27;2.27;;;;;22.00;99632.00;;;;2073974;28;20261;-69
2020/12/15 00:23:49;;;;;;;4.03;2.33;;;;;22.00;99647.00;;;;2078711;28;20777;-68
2020/12/15 00:24:49;;;;;;;2.60;2.40;;;;;21.90;99633.00;;;;2073668;28;20741;-69
2020/12/15 00:25:50;;;;;;;2.93;2.37;;;;;21.90;99644.00;;;;2070179;28;20464;-69
2020/12/15 00:26:50;;;;;;;4.57;2.83;;;;;21.90;99645.00;;;;2064733;28;20220;-69
2020/12/15 00:27:51;;;;;;;2.40;2.20;;;;;22.00;99647.00;;;;2078892;28;20225;-69
2020/12/15 00:28:51;;;;;;;3.90;2.40;;;;;22.00;99644.00;;;;2073608;28;20214;-69
2020/12/15 00:29:51;;;;;;;3.43;2.70;;;;;22.00;99642.00;;;;2069882;28;20747;-69
2020/12/15 00:30:52;;;;;;;3.80;2.77;;;;;22.00;99643.00;;;;2071563;28;20214;-69
2020/12/15 00:31:52;;;;;;;6.37;2.30;;;;;21.90;99637.00;;;;2079224;28;20241;-69
2020/12/15 00:32:52;;;;;;;4.70;2.33;;;;;22.00;99644.00;;;;2080347;28;20687;-69
2020/12/15 00:33:53;;;;;;;2.33;2.13;;;;;21.90;99647.00;;;;2073401;28;20760;-69
2020/12/15 00:34:53;;;;;;;1.83;1.73;;;;;21.90;99644.00;;;;2078881;28;20247;-69
2020/12/15 00:35:54;;;;;;;2.63;2.30;;;;;21.90;99644.00;;;;2073366;28;20695;-69
2020/12/15 00:36:58;;;;;;;3.05;2.08;;;;;21.90;99645.00;;;;2078910;28;20229;-69
2020/12/15 00:37:58;;;;;;;2.25;2.03;;;;;21.90;99641.00;;;;2071447;28;20236;-69
2020/12/15 00:38:59;;;;;;;2.80;2.30;;;;;21.90;99644.00;;;;2071449;28;20269;-69
2020/12/15 00:39:59;;;;;;;3.60;2.30;;;;;21.90;99637.00;;;;2071045;28;20233;-69
2020/12/15 00:41:00;;;;;;;2.30;2.10;;;;;21.90;99620.00;;;;2070263;28;20779;-69
2020/12/15 00:42:00;;;;;;;2.07;1.87;;;;;21.90;99644.00;;;;2072081;28;20219;-69
2020/12/15 00:43:00;;;;;;;2.43;2.00;;;;;21.90;99648.00;;;;2079919;28;20224;-69
2020/12/15 00:44:01;;;;;;;2.60;2.33;;;;;21.90;99646.00;;;;2072205;28;20214;-69
2020/12/15 00:45:01;;;;;;;2.37;1.90;;;;;21.90;99654.00;;;;2080188;28;20297;-69
2020/12/15 00:46:02;;;;;;;4.60;2.20;;;;;21.90;99649.00;;;;2071983;28;20209;-69
2020/12/15 00:47:03;;;;;;;1.73;1.60;;;;;21.90;99649.00;;;;2080119;28;20213;-69
2020/12/15 00:48:03;;;;;;;2.20;2.00;;;;;21.90;99660.00;;;;2072218;28;20236;-69
2020/12/15 00:49:04;;;;;;;2.20;2.00;;;;;21.90;99663.00;;;;2080008;28;20201;-69
2020/12/15 00:50:06;;;;;;;3.13;2.07;;;;;21.90;99655.00;;;;2072340;28;20221;-69
2020/12/15 00:51:06;;;;;;;2.25;2.00;;;;;21.80;99656.00;;;;2070718;28;20743;-69
2020/12/15 00:52:07;;;;;;;1.93;1.70;;;;;21.80;99653.00;;;;2064013;28;20226;-69
2020/12/15 00:53:07;;;;;;;2.10;1.90;;;;;21.90;99659.00;;;;2079334;28;20221;-69
2020/12/15 00:54:08;;;;;;;2.63;2.00;;;;;21.80;99657.00;;;;2072929;28;20233;-69
2020/12/15 00:55:08;;;;;;;1.70;1.50;;;;;21.90;99657.00;;;;2079154;28;20216;-69
2020/12/15 00:56:08;;;;;;;2.30;2.10;;;;;21.90;99669.00;;;;2072977;28;20216;-69
2020/12/15 00:57:09;;;;;;;3.70;1.87;;;;;21.80;99660.00;;;;2079186;28;20294;-69
2020/12/15 00:58:10;;;;;;;1.90;1.80;;;;;21.80;99658.00;;;;2073139;28;20747;-69
2020/12/15 00:59:10;;;;;;;1.90;1.80;;;;;21.80;99655.00;;;;2078862;28;20244;-69
2020/12/15 01:00:10;;;;;;;1.97;1.63;;;;;21.80;99671.00;;;;2064754;28;20227;-69
2020/12/15 01:01:11;;;;;;;2.27;2.07;;;;;21.80;99663.00;;;;2061968;28;20218;-69
2020/12/15 01:02:12;;;;;;;2.73;1.87;;;;;21.80;99664.00;;;;2064778;28;20227;-69
2020/12/15 01:03:12;;;;;;;2.00;1.70;;;;;21.80;99668.00;;;;2069705;28;20468;-69
2020/12/15 01:04:13;;;;;;;2.00;1.67;;;;;21.80;99659.00;;;;2064809;28;20222;-69
2020/12/15 01:05:13;;;;;;;1.73;1.63;;;;;21.80;99658.00;;;;2069789;28;20218;-69
2020/12/15 01:06:13;;;;;;;2.30;2.10;;;;;21.80;99663.00;;;;2073337;28;20218;-69
2020/12/15 01:07:14;;;;;;;2.53;1.90;;;;;21.70;99659.00;;;;2079884;28;20224;-69
2020/12/15 01:08:14;;;;;;;2.03;1.90;;;;;21.80;99659.00;;;;2079837;28;20217;-69
2020/12/15 01:09:14;;;;;;;1.87;1.73;;;;;21.80;99658.00;;;;2079999;28;20235;-69
2020/12/15 01:10:15;;;;;;;2.87;1.80;;;;;21.80;99662.00;;;;2077598;28;20347;-69
2020/12/15 01:11:15;;;;;;;2.60;2.00;;;;;21.80;99657.00;;;;2057993;28;20234;-69
2020/12/15 01:12:16;;;;;;;1.87;1.77;;;;;21.80;99656.00;;;;2068849;28;20220;-69
2020/12/15 01:13:16;;;;;;;1.90;1.60;;;;;21.80;99659.00;;;;2068685;28;20463;-69
2020/12/15 01:14:17;;;;;;;2.07;1.80;;;;;21.80;99659.00;;;;2077700;28;20224;-69
2020/12/15 01:15:17;;;;;;;2.43;1.93;;;;;21.80;99659.00;;;;2072509;28;20227;-69
2020/12/15 01:16:17;;;;;;;3.50;1.70;;;;;21.70;99651.00;;;;2076523;28;20224;-69
2020/12/15 01:17:18;;;;;;;3.20;1.90;;;;;21.80;99655.00;;;;2073817;28;20221;-69
2020/12/15 01:18:19;;;;;;;4.17;1.93;;;;;21.70;99659.00;;;;2077701;28;20240;-69
2020/12/15 01:19:19;;;;;;;4.50;1.87;;;;;21.70;99652.00;;;;2074240;28;20225;-69
2020/12/15 01:20:19;;;;;;;2.00;1.50;;;;;21.70;99664.00;;;;2068906;28;20461;-69
2020/12/15 01:21:29;;;;;;;2.27;2.07;;;;;21.70;99661.00;;;;2065431;28;20283;-69
2020/12/15 01:22:29;;;;;;;2.22;2.03;;;;;21.70;99661.00;;;;2075797;28;20288;-69
2020/12/15 01:23:30;;;;;;;2.70;2.20;;;;;21.80;99656.00;;;;2059147;28;20229;-69
2020/12/15 01:24:30;;;;;;;2.53;1.90;;;;;21.70;99647.00;;;;2066347;28;20225;-69
2020/12/15 01:25:31;;;;;;;1.83;1.70;;;;;21.70;99639.00;;;;2072636;28;20682;-69
2020/12/15 01:26:32;;;;;;;1.90;1.70;;;;;21.70;99647.00;;;;2075567;28;20221;-69
2020/12/15 01:27:32;;;;;;;2.07;1.70;;;;;21.70;99648.00;;;;2075937;28;20205;-69
2020/12/15 01:28:33;;;;;;;2.47;1.80;;;;;21.70;99650.00;;;;2075679;28;20214;-69
2020/12/15 01:29:34;;;;;;;3.92;1.70;;;;;21.70;99653.00;;;;2076281;28;20208;-69
2020/12/15 01:30:34;;;;;;;2.93;2.00;;;;;21.70;99655.00;;;;2075415;28;20206;-69
2020/12/15 01:31:34;;;;;;;2.47;1.97;;;;;21.70;99653.00;;;;2076163;28;20704;-69
2020/12/15 01:32:35;;;;;;;2.63;1.57;;;;;21.70;99654.00;;;;2075591;28;21012;-69
2020/12/15 01:33:35;;;;;;;2.10;1.83;;;;;21.70;99655.00;;;;2075262;28;20216;-69
2020/12/15 01:34:35;;;;;;;3.67;1.80;;;;;21.70;99657.00;;;;2075137;28;20213;-69
2020/12/15 01:35:36;;;;;;;3.00;1.70;;;;;21.70;99657.00;;;;2076311;28;20218;-69
2020/12/15 01:36:36;;;;;;;1.73;1.53;;;;;21.70;99658.00;;;;2075047;28;20206;-69
2020/12/15 01:37:36;;;;;;;2.40;2.13;;;;;21.70;99651.00;;;;2077250;28;20201;-69
2020/12/15 01:38:37;;;;;;;2.70;2.00;;;;;21.70;99659.00;;;;2079712;28;20747;-69
2020/12/15 01:39:37;;;;;;;2.10;1.40;;;;;21.70;99656.00;;;;2079793;28;20738;-69
2020/12/15 01:40:37;;;;;;;4.33;2.00;;;;;21.70;99655.00;;;;2074812;28;20249;-69
2020/12/15 01:41:37;;;;;;;2.10;1.53;;;;;21.70;99654.00;;;;2076573;28;20220;-69
2020/12/15 01:42:38;;;;;;;3.00;2.10;;;;;21.70;99637.00;;;;2074877;28;20214;-69
2020/12/15 01:43:38;;;;;;;4.63;1.77;;;;;21.60;99668.00;;;;2076811;28;20684;-69
2020/12/15 01:44:39;;;;;;;2.10;1.50;;;;;21.60;99670.00;;;;2074497;28;20571;-69
2020/12/15 01:45:39;;;;;;;1.60;1.50;;;;;21.60;99670.00;;;;2076810;28;20445;-69
2020/12/15 01:46:39;;;;;;;2.03;1.43;;;;;21.60;99661.00;;;;2074624;28;20236;-69
2020/12/15 01:47:41;;;;;;;1.93;1.60;;;;;21.60;99664.00;;;;2068089;28;20212;-69
2020/12/15 01:48:41;;;;;;;1.90;1.70;;;;;21.60;99661.00;;;;2065733;28;20222;-69
2020/12/15 01:49:42;;;;;;;1.70;1.60;;;;;21.60;99667.00;;;;2068380;28;20798;-69
2020/12/15 01:50:42;;;;;;;4.03;1.90;;;;;21.60;99671.00;;;;2065382;28;20740;-69
2020/12/15 01:51:44;;;;;;;2.23;1.60;;;;;21.60;99667.00;;;;2077136;28;20555;-69
2020/12/15 01:52:44;;;;;;;1.85;1.70;;;;;21.60;99667.00;;;;2065246;28;20246;-69
2020/12/15 01:53:47;;;;;;;2.13;1.60;;;;;21.60;99662.00;;;;2060913;28;20222;-69
2020/12/15 01:54:47;;;;;;;2.05;1.85;;;;;21.60;99663.00;;;;2070872;28;20225;-69
2020/12/15 01:55:48;;;;;;;1.83;1.70;;;;;21.60;99668.00;;;;2069110;28;20312;-69
2020/12/15 01:56:48;;;;;;;2.90;1.67;;;;;21.60;99661.00;;;;2064136;28;20229;-69
2020/12/15 01:57:48;;;;;;;2.00;1.60;;;;;21.60;99659.00;;;;2069183;28;20224;-69
2020/12/15 01:58:53;;;;;;;1.90;1.70;;;;;21.60;99662.00;;;;2079580;28;20218;-69
2020/12/15 01:59:53;;;;;;;2.95;1.80;;;;;21.60;99662.00;;;;2063930;28;20221;-69
2020/12/15 02:00:54;;;;;;;2.47;1.70;;;;;21.60;99657.00;;;;2069540;28;20760;-69
2020/12/15 02:01:54;;;;;;;2.07;1.57;;;;;21.50;99664.00;;;;2072409;28;20941;-69
2020/12/15 02:02:54;;;;;;;3.10;1.53;;;;;21.60;99654.00;;;;2078645;28;20755;-69
2020/12/15 02:03:55;;;;;;;2.03;1.70;;;;;21.60;99659.00;;;;2072142;28;20639;-69
2020/12/15 02:04:55;;;;;;;1.60;1.50;;;;;21.60;99651.00;;;;2077605;28;20703;-67
2020/12/15 02:05:56;;;;;;;2.77;1.90;;;;;21.60;99645.00;;;;2072439;28;20218;-68
2020/12/15 02:06:56;;;;;;;1.93;1.60;;;;;21.50;99646.00;;;;2069985;28;20259;-69
2020/12/15 02:07:56;;;;;;;1.87;1.77;;;;;21.50;99648.00;;;;2070741;28;20218;-69
2020/12/15 02:08:57;;;;;;;1.80;1.70;;;;;21.60;99642.00;;;;2079569;28;20303;-68
2020/12/15 02:09:57;;;;;;;1.60;1.50;;;;;21.60;99640.00;;;;2070849;28;20281;-68
2020/12/15 02:10:57;;;;;;;1.77;1.67;;;;;21.50;99639.00;;;;2070795;28;20233;-69
2020/12/15 02:11:58;;;;;;;1.70;1.60;;;;;21.50;99642.00;;;;2079622;28;20218;-69
2020/12/15 02:12:58;;;;;;;1.97;1.63;;;;;21.50;99644.00;;;;2055316;28;20321;-69
2020/12/15 02:13:58;;;;;;;1.90;1.60;;;;;21.50;99638.00;;;;2062418;28;20222;-68
2020/12/15 02:14:59;;;;;;;2.10;1.70;;;;;21.50;99638.00;;;;2071624;28;21022;-69
2020/12/15 02:15:59;;;;;;;1.97;1.73;;;;;21.50;99644.00;;;;2079321;28;20576;-69
2020/12/15 02:17:00;;;;;;;2.87;1.60;;;;;21.50;99641.00;;;;2062821;28;20751;-69
2020/12/15 02:18:00;;;;;;;1.90;1.73;;;;;21.50;99634.00;;;;2070571;28;20781;-69
2020/12/15 02:19:00;;;;;;;2.10;1.90;;;;;21.50;99640.00;;;;2071489;28;20228;-69
2020/12/15 02:20:04;;;;;;;1.80;1.70;;;;;21.50;99641.00;;;;2076212;28;20210;-69
2020/12/15 02:21:05;;;;;;;2.00;1.90;;;;;21.50;99632.00;;;;2071819;28;20218;-69
2020/12/15 02:22:05;;;;;;;1.90;1.67;;;;;21.50;99641.00;;;;2078857;28;20316;-69
2020/12/15 02:23:06;;;;;;;1.90;1.73;;;;;21.50;99628.00;;;;2063225;28;20250;-69
2020/12/15 02:24:06;;;;;;;2.57;1.50;;;;;21.50;99628.00;;;;2070247;28;20221;-69
2020/12/15 02:25:07;;;;;;;2.53;1.90;;;;;21.50;99633.00;;;;2071677;28;20201;-69
2020/12/15 02:26:09;;;;;;;3.33;2.03;;;;;21.50;99638.00;;;;2079293;28;20250;-69
2020/12/15 02:27:09;;;;;;;2.38;1.80;;;;;21.50;99627.00;;;;2069710;28;20283;-69
2020/12/15 02:28:09;;;;;;;1.93;1.80;;;;;21.40;99624.00;;;;2063818;28;20210;-69
2020/12/15 02:29:10;;;;;;;2.13;1.67;;;;;21.50;99635.00;;;;2078372;28;20212;-69
2020/12/15 02:30:10;;;;;;;3.40;1.80;;;;;21.50;99635.00;;;;2071950;28;20230;-69
2020/12/15 02:31:10;;;;;;;1.70;1.60;;;;;21.40;99630.00;;;;2077685;28;20291;-69
2020/12/15 02:32:10;;;;;;;2.47;1.70;;;;;21.50;99627.00;;;;2071995;28;20220;-69
2020/12/15 02:33:11;;;;;;;2.17;1.60;;;;;21.40;99634.00;;;;2078132;28;20212;-69
2020/12/15 02:34:11;;;;;;;2.97;1.80;;;;;21.40;99633.00;;;;2072573;28;20595;-69
2020/12/15 02:35:11;;;;;;;2.10;1.90;;;;;21.40;99632.00;;;;2077994;28;20626;-69
2020/12/15 02:36:12;;;;;;;1.83;1.73;;;;;21.40;99632.00;;;;2071181;28;20214;-69
2020/12/15 02:37:13;;;;;;;2.33;1.70;;;;;21.40;99624.00;;;;2073658;28;20268;-69
2020/12/15 02:38:13;;;;;;;2.10;1.60;;;;;21.40;99636.00;;;;2079420;28;20219;-69
2020/12/15 02:39:16;;;;;;;1.40;1.30;;;;;21.40;99636.00;;;;2078725;28;20224;-69
2020/12/15 02:40:16;;;;;;;3.42;1.98;;;;;21.40;99635.00;;;;2068883;28;20271;-69
2020/12/15 02:41:16;;;;;;;1.90;1.43;;;;;21.40;99644.00;;;;2064664;28;20729;-69
2020/12/15 02:42:17;;;;;;;1.80;1.70;;;;;21.40;99644.00;;;;2077517;28;20750;-69
2020/12/15 02:43:17;;;;;;;3.30;1.97;;;;;21.40;99647.00;;;;2073460;28;20225;-69
2020/12/15 02:44:18;;;;;;;3.27;1.63;;;;;21.40;99647.00;;;;2077411;28;20247;-69
2020/12/15 02:45:18;;;;;;;4.57;1.90;;;;;21.40;99646.00;;;;2073455;28;20263;-69
2020/12/15 02:46:18;;;;;;;2.00;1.60;;;;;21.40;99651.00;;;;2079142;28;20295;-69
2020/12/15 02:47:18;;;;;;;2.40;1.43;;;;;21.40;99650.00;;;;2077068;28;20223;-69
2020/12/15 02:48:19;;;;;;;1.70;1.40;;;;;21.40;99647.00;;;;2073424;28;20235;-69
2020/12/15 02:49:19;;;;;;;2.00;1.80;;;;;21.40;99651.00;;;;2076972;28;20237;-69
2020/12/15 02:50:23;;;;;;;2.70;1.40;;;;;21.40;99643.00;;;;2071120;28;20321;-69
2020/12/15 02:51:24;;;;;;;4.20;1.73;;;;;21.40;99647.00;;;;2076505;28;20217;-69
2020/12/15 02:52:24;;;;;;;2.70;1.73;;;;;21.40;99650.00;;;;2065849;28;20213;-69
2020/12/15 02:53:24;;;;;;;1.77;1.67;;;;;21.40;99659.00;;;;2067745;28;20213;-69
2020/12/15 02:54:25;;;;;;;1.73;1.63;;;;;21.40;99646.00;;;;2071394;28;20308;-69
2020/12/15 02:55:25;;;;;;;1.70;1.60;;;;;21.40;99648.00;;;;2074426;28;20251;-68
2020/12/15 02:56:26;;;;;;;1.50;1.40;;;;;21.40;99648.00;;;;2079310;28;20225;-69
2020/12/15 02:57:26;;;;;;;3.70;1.77;;;;;21.30;99656.00;;;;2075767;28;20252;-69
2020/12/15 02:58:26;;;;;;;1.83;1.40;;;;;21.40;99655.00;;;;2071212;28;20221;-69
2020/12/15 02:59:27;;;;;;;2.00;1.90;;;;;21.40;99653.00;;;;2074640;28;20229;-69
2020/12/15 03:00:27;;;;;;;1.83;1.57;;;;;21.30;99659.00;;;;2076066;28;20272;-69
2020/12/15 03:01:27;;;;;;;1.80;1.70;;;;;21.30;99663.00;;;;2074617;28;20222;-69
2020/12/15 03:02:28;;;;;;;2.60;1.97;;;;;21.30;99662.00;;;;2075685;28;20224;-66
2020/12/15 03:03:28;;;;;;;3.70;1.60;;;;;21.30;99665.00;;;;2074824;28;20247;-69
2020/12/15 03:04:28;;;;;;;1.63;1.53;;;;;21.30;99663.00;;;;2075616;28;20219;-69
2020/12/15 03:05:29;;;;;;;1.63;1.53;;;;;21.30;99665.00;;;;2074720;28;20217;-69
2020/12/15 03:06:29;;;;;;;1.93;1.73;;;;;21.30;99670.00;;;;2079278;28;20244;-69
2020/12/15 03:07:30;;;;;;;2.23;1.73;;;;;21.30;99666.00;;;;2078919;28;20266;-69
2020/12/15 03:08:30;;;;;;;1.80;1.67;;;;;21.30;99655.00;;;;2070499;28;20220;-69
2020/12/15 03:09:31;;;;;;;2.30;1.50;;;;;21.30;99665.00;;;;2070523;28;20821;-69
2020/12/15 03:10:31;;;;;;;1.93;1.73;;;;;21.30;99663.00;;;;2070689;28;20221;-69
2020/12/15 03:11:32;;;;;;;1.70;1.60;;;;;21.30;99660.00;;;;2070480;28;20723;-69
2020/12/15 03:12:32;;;;;;;1.87;1.70;;;;;21.30;99658.00;;;;2079063;28;20218;-68
2020/12/15 03:13:33;;;;;;;2.20;2.00;;;;;21.30;99667.00;;;;2075178;28;20301;-68
2020/12/15 03:14:33;;;;;;;2.07;1.73;;;;;21.30;99653.00;;;;2075404;28;20291;-69
2020/12/15 03:15:34;;;;;;;1.70;1.60;;;;;21.30;99653.00;;;;2074915;28;20680;-68
2020/12/15 03:16:34;;;;;;;1.67;1.57;;;;;21.30;99656.00;;;;2070977;28;20527;-68
2020/12/15 03:17:35;;;;;;;1.70;1.60;;;;;21.30;99660.00;;;;2075509;28;20715;-69
2020/12/15 03:18:35;;;;;;;1.70;1.57;;;;;21.30;99656.00;;;;2074475;28;20238;-69
2020/12/15 03:19:37;;;;;;;1.40;1.27;;;;;21.30;99660.00;;;;2075651;28;20225;-69
2020/12/15 03:20:38;;;;;;;2.17;1.42;;;;;21.30;99656.00;;;;2074434;28;20208;-69
2020/12/15 03:21:39;;;;;;;1.83;1.73;;;;;21.30;99650.00;;;;2076061;28;20213;-69
2020/12/15 03:22:39;;;;;;;2.73;1.70;;;;;21.30;99651.00;;;;2074231;28;20619;-68
2020/12/15 03:23:39;;;;;;;1.83;1.60;;;;;21.30;99652.00;;;;2076202;28;20591;-69
2020/12/15 03:24:40;;;;;;;1.80;1.70;;;;;21.20;99654.00;;;;2073918;28;21069;-69
2020/12/15 03:25:40;;;;;;;1.67;1.57;;;;;21.30;99654.00;;;;2076262;28;20752;-69
2020/12/15 03:26:40;;;;;;;1.37;1.27;;;;;21.30;99656.00;;;;2073874;28;20217;-69
2020/12/15 03:27:41;;;;;;;1.73;1.60;;;;;21.30;99654.00;;;;2076232;28;20235;-69
2020/12/15 03:28:41;;;;;;;1.70;1.53;;;;;21.30;99656.00;;;;2073964;28;20248;-69
2020/12/15 03:29:41;;;;;;;1.30;1.20;;;;;21.30;99655.00;;;;2076450;28;20223;-68
2020/12/15 03:30:42;;;;;;;1.43;1.33;;;;;21.30;99657.00;;;;2073721;28;20270;-69
2020/12/15 03:31:42;;;;;;;1.67;1.53;;;;;21.20;99655.00;;;;2076224;28;20207;-69
2020/12/15 03:32:42;;;;;;;2.03;1.70;;;;;21.20;99650.00;;;;2073776;28;20216;-69
2020/12/15 03:33:44;;;;;;;1.80;1.70;;;;;21.20;99651.00;;;;2077118;28;20215;-69
2020/12/15 03:34:45;;;;;;;2.00;1.40;;;;;21.20;99648.00;;;;2074590;28;20212;-69
2020/12/15 03:35:45;;;;;;;2.13;1.63;;;;;21.20;99650.00;;;;2078461;28;20238;-69
2020/12/15 03:36:45;;;;;;;1.90;1.70;;;;;21.20;99653.00;;;;2074554;28;20279;-69
2020/12/15 03:37:46;;;;;;;2.37;1.60;;;;;21.20;99656.00;;;;2079050;28;20208;-69
2020/12/15 03:38:46;;;;;;;1.80;1.70;;;;;21.20;99647.00;;;;2068419;28;20216;-69
2020/12/15 03:39:47;;;;;;;4.03;1.73;;;;;21.20;99651.00;;;;2070723;28;20228;-69
2020/12/15 03:40:47;;;;;;;4.50;1.77;;;;;21.20;99653.00;;;;2067180;28;20233;-69
2020/12/15 03:41:47;;;;;;;2.60;2.00;;;;;21.20;99662.00;;;;2069580;28;20678;-68
2020/12/15 03:42:48;;;;;;;1.80;1.70;;;;;21.20;99651.00;;;;2065077;28;20226;-69
2020/12/15 03:43:49;;;;;;;2.03;1.70;;;;;21.20;99659.00;;;;2062195;28;20701;-69
2020/12/15 03:44:50;;;;;;;1.80;1.70;;;;;21.20;99652.00;;;;2071986;28;20229;-69
2020/12/15 03:45:50;;;;;;;1.67;1.57;;;;;21.20;99656.00;;;;2079098;28;20270;-68
2020/12/15 03:46:50;;;;;;;2.10;1.80;;;;;21.20;99652.00;;;;2065218;28;20518;-69
2020/12/15 03:47:51;;;;;;;2.60;1.70;;;;;21.20;99654.00;;;;2070426;28;20573;-69
2020/12/15 03:48:51;;;;;;;1.60;1.50;;;;;21.20;99648.00;;;;2080845;28;20228;-69
2020/12/15 03:49:51;;;;;;;2.67;1.80;;;;;21.20;99651.00;;;;2073861;28;20252;-69
2020/12/15 03:50:52;;;;;;;3.13;1.70;;;;;21.20;99648.00;;;;2079528;28;20694;-69
2020/12/15 03:51:52;;;;;;;1.90;1.80;;;;;21.20;99654.00;;;;2073651;28;20224;-68
2020/12/15 03:52:53;;;;;;;2.03;1.83;;;;;21.20;99651.00;;;;2079503;28;20220;-69
2020/12/15 03:53:53;;;;;;;1.83;1.73;;;;;21.20;99640.00;;;;2057499;28;20744;-69
2020/12/15 03:54:54;;;;;;;2.27;1.70;;;;;21.10;99650.00;;;;2070695;28;20234;-69
2020/12/15 03:55:54;;;;;;;2.03;1.90;;;;;21.10;99639.00;;;;2062299;28;20225;-69
2020/12/15 03:56:54;;;;;;;2.23;1.70;;;;;21.10;99642.00;;;;2070818;28;20233;-69
2020/12/15 03:57:55;;;;;;;2.30;2.07;;;;;21.10;99643.00;;;;2073455;28;20221;-69
2020/12/15 03:58:55;;;;;;;2.37;1.80;;;;;21.10;99645.00;;;;2079667;28;20281;-69
2020/12/15 03:59:55;;;;;;;1.53;1.43;;;;;21.20;99647.00;;;;2073481;28;20223;-69
2020/12/15 04:00:56;;;;;;;1.97;1.87;;;;;21.20;99643.00;;;;2079756;28;20224;-69
2020/12/15 04:01:57;;;;;;;2.27;1.73;;;;;21.10;99638.00;;;;2072050;28;20229;-69
2020/12/15 04:02:57;;;;;;;2.00;1.77;;;;;21.10;99641.00;;;;2079922;28;20227;-69
2020/12/15 04:03:58;;;;;;;2.23;1.73;;;;;21.10;99640.00;;;;2073077;28;20560;-69
2020/12/15 04:04:59;;;;;;;1.60;1.50;;;;;21.10;99637.00;;;;2071430;28;20216;-69
2020/12/15 04:05:59;;;;;;;1.60;1.50;;;;;21.10;99644.00;;;;2064035;28;20253;-69
2020/12/15 04:06:59;;;;;;;2.00;1.80;;;;;21.10;99647.00;;;;2080017;28;20220;-69
2020/12/15 04:08:00;;;;;;;1.80;1.70;;;;;21.10;99647.00;;;;2080568;28;20223;-69
2020/12/15 04:09:00;;;;;;;2.30;2.00;;;;;21.10;99646.00;;;;2080258;28;20240;-67
2020/12/15 04:10:01;;;;;;;2.43;1.83;;;;;21.10;99646.00;;;;2080606;28;20717;-69
2020/12/15 04:11:01;;;;;;;1.90;1.80;;;;;21.10;99648.00;;;;2072631;28;20688;-69
2020/12/15 04:12:01;;;;;;;2.10;1.90;;;;;21.20;99651.00;;;;2080459;28;20216;-68
2020/12/15 04:13:01;;;;;;;2.00;1.70;;;;;21.10;99651.00;;;;2072425;28;20282;-69
2020/12/15 04:14:02;;;;;;;1.80;1.60;;;;;21.10;99651.00;;;;2072510;28;20268;-69
2020/12/15 04:15:04;;;;;;;2.00;1.70;;;;;21.10;99654.00;;;;2079957;28;20227;-69
2020/12/15 04:16:04;;;;;;;1.75;1.65;;;;;21.10;99647.00;;;;2072203;28;20581;-69
2020/12/15 04:17:05;;;;;;;2.37;2.00;;;;;21.10;99661.00;;;;2080008;28;20212;-69
2020/12/15 04:18:05;;;;;;;1.60;1.50;;;;;21.10;99648.00;;;;2064130;28;20270;-69
2020/12/15 04:19:05;;;;;;;2.50;1.97;;;;;21.10;99647.00;;;;2071150;28;20309;-69
2020/12/15 04:20:06;;;;;;;2.10;2.00;;;;;21.10;99653.00;;;;2072908;28;20221;-69
2020/12/15 04:21:06;;;;;;;1.63;1.53;;;;;21.10;99648.00;;;;2079875;28;20266;-69
2020/12/15 04:22:06;;;;;;;2.80;1.70;;;;;21.10;99650.00;;;;2072972;28;20225;-69
2020/12/15 04:23:07;;;;;;;1.70;1.60;;;;;21.10;99648.00;;;;2079847;28;20227;-69
2020/12/15 04:24:07;;;;;;;2.20;1.70;;;;;21.10;99653.00;;;;2073011;28;20306;-68
2020/12/15 04:25:07;;;;;;;2.17;1.97;;;;;21.10;99648.00;;;;2079627;28;20228;-69
2020/12/15 04:26:08;;;;;;;2.20;2.00;;;;;21.10;99661.00;;;;2073043;28;20216;-69
2020/12/15 04:27:08;;;;;;;2.00;1.80;;;;;21.10;99657.00;;;;2079518;28;20678;-69
2020/12/15 04:28:08;;;;;;;1.67;1.57;;;;;21.10;99654.00;;;;2073115;28;20213;-69
2020/12/15 04:29:10;;;;;;;2.47;1.93;;;;;21.10;99662.00;;;;2079203;28;20220;-69
2020/12/15 04:30:10;;;;;;;2.50;1.85;;;;;21.10;99652.00;;;;2073103;28;20241;-66
2020/12/15 04:31:10;;;;;;;2.17;1.97;;;;;21.10;99656.00;;;;2079085;28;20564;-69
2020/12/15 04:32:11;;;;;;;2.57;2.03;;;;;21.10;99650.00;;;;2073377;28;20217;-67
2020/12/15 04:33:12;;;;;;;2.33;1.83;;;;;21.00;99656.00;;;;2065957;28;20302;-68
2020/12/15 04:34:12;;;;;;;2.00;1.90;;;;;21.00;99665.00;;;;2057841;28;20220;-68
2020/12/15 04:35:13;;;;;;;2.10;1.90;;;;;21.10;99664.00;;;;2076590;28;20583;-68
2020/12/15 04:36:13;;;;;;;1.60;1.50;;;;;21.00;99657.00;;;;2073233;28;20213;-68
2020/12/15 04:37:13;;;;;;;2.30;2.10;;;;;21.00;99660.00;;;;2080236;28;20237;-68
2020/12/15 04:38:14;;;;;;;3.27;1.70;;;;;21.00;99656.00;;;;2066866;28;20230;-67
2020/12/15 04:39:14;;;;;;;2.10;2.00;;;;;21.00;99664.00;;;;2060439;28;20252;-69
2020/12/15 04:40:14;;;;;;;2.23;1.60;;;;;21.00;99672.00;;;;2069736;28;20285;-68
2020/12/15 04:41:15;;;;;;;2.37;2.13;;;;;21.00;99671.00;;;;2075755;28;20246;-69
2020/12/15 04:42:17;;;;;;;2.37;2.17;;;;;21.00;99661.00;;;;2069755;28;20208;-68
2020/12/15 04:43:17;;;;;;;3.33;2.00;;;;;21.00;99663.00;;;;2044576;28;20223;-69
2020/12/15 04:44:17;;;;;;;2.13;1.87;;;;;21.00;99661.00;;;;2063471;28;20299;-69
2020/12/15 04:45:18;;;;;;;2.27;2.07;;;;;21.10;99664.00;;;;2065523;28;20263;-69
2020/12/15 04:46:20;;;;;;;1.90;1.80;;;;;21.00;99667.00;;;;2069071;28;20817;-69
2020/12/15 04:47:33;;;;;;;2.50;2.30;;;;;21.00;99667.00;;;;2065929;28;20216;-68
2020/12/15 04:48:33;;;;;;;2.60;2.10;;;;;21.00;99674.00;;;;2060909;28;20226;-68
2020/12/15 04:49:45;;;;;;;2.80;2.10;;;;;21.00;99670.00;;;;2051414;28;20264;-69
2020/12/15 04:50:45;;;;;;;2.20;2.00;;;;;21.00;99670.00;;;;2056698;28;20238;-69
2020/12/15 04:51:58;;;;;;;2.43;1.60;;;;;21.00;99666.00;;;;2061205;28;20715;-68
2020/12/15 04:53:03;;;;;;;1.77;1.67;;;;;21.00;99666.00;;;;2073347;28;20335;-68
2020/12/15 04:54:03;;;;;;;2.15;1.83;;;;;21.00;99675.00;;;;2072246;28;20229;-69
2020/12/15 04:55:03;;;;;;;2.10;1.90;;;;;21.00;99670.00;;;;2079891;28;20703;-69
2020/12/15 04:56:28;;;;;;;2.13;1.93;;;;;21.00;99671.00;;;;2072337;28;20215;-69
2020/12/15 04:57:28;;;;;;;1.88;1.77;;;;;21.00;99671.00;;;;2067782;28;20230;-69
2020/12/15 04:58:28;;;;;;;2.60;2.17;;;;;21.00;99676.00;;;;2067966;28;20209;-69
2020/12/15 04:59:35;;;;;;;1.70;1.60;;;;;21.00;99670.00;;;;2059666;28;20762;-69
2020/12/15 05:00:35;;;;;;;2.08;1.90;;;;;21.00;99675.00;;;;2061444;28;20304;-69
2020/12/15 05:01:35;;;;;;;1.83;1.73;;;;;21.00;99679.00;;;;2075536;28;21107;-69
2020/12/15 05:02:39;;;;;;;2.13;1.97;;;;;21.00;99675.00;;;;2059540;28;20225;-69
2020/12/15 05:03:40;;;;;;;2.05;1.95;;;;;21.00;99677.00;;;;2059110;28;20216;-68
2020/12/15 05:04:40;;;;;;;1.90;1.80;;;;;21.00;99683.00;;;;2068029;28;20243;-69